TimeCST,TemperatureF,Dew PointF,Humidity,Sea Level PressureIn,VisibilityMPH,Wind Direction,Wind SpeedMPH,Gust SpeedMPH,PrecipitationIn,Events,Conditions,WindDirDegrees,DateUTC
12:52 AM,14.0,10.0,84,30.25,10.0,Calm,Calm,-,N/A,,Clear,0,2013-01-16 06:52:00
1:52 AM,12.9,10.0,88,30.24,10.0,Calm,Calm,-,N/A,,Clear,0,2013-01-16 07:52:00
2:52 AM,12.9,9.0,84,30.23,10.0,Calm,Calm,-,N/A,,Clear,0,2013-01-16 08:52:00
3:52 AM,12.0,8.1,84,30.20,10.0,Calm,Calm,-,N/A,,Clear,0,2013-01-16 09:52:00
4:52 AM,12.0,7.0,80,30.19,10.0,Calm,Calm,-,N/A,,Clear,0,2013-01-16 10:52:00
5:52 AM,10.9,6.1,81,30.19,10.0,Calm,Calm,-,N/A,,Clear,0,2013-01-16 11:52:00
6:52 AM,12.9,8.1,81,30.20,10.0,Calm,Calm,-,N/A,,Clear,0,2013-01-16 12:52:00
7:52 AM,17.1,10.9,77,30.19,10.0,South,3.5,-,N/A,,Clear,170,2013-01-16 13:52:00
8:52 AM,23.0,17.1,78,30.21,10.0,South,4.6,-,N/A,,Clear,180,2013-01-16 14:52:00
9:52 AM,28.9,18.0,64,30.23,10.0,SSW,5.8,-,N/A,,Clear,200,2013-01-16 15:52:00
10:52 AM,33.1,18.0,54,30.21,10.0,SSW,10.4,-,N/A,,Clear,210,2013-01-16 16:52:00
11:52 AM,39.9,18.0,41,30.16,10.0,WSW,11.5,19.6,N/A,,Clear,240,2013-01-16 17:52:00
12:52 PM,43.0,17.1,35,30.14,10.0,WSW,11.5,-,N/A,,Clear,250,2013-01-16 18:52:00
2:52 PM,46.0,18.0,33,30.11,10.0,SW,9.2,-,N/A,,Mostly Cloudy,220,2013-01-16 20:52:00
3:52 PM,46.9,17.1,30,30.12,10.0,West,9.2,-,N/A,,Partly Cloudy,260,2013-01-16 21:52:00
4:52 PM,45.0,18.0,34,30.13,10.0,WSW,4.6,-,N/A,,Clear,250,2013-01-16 22:52:00
5:52 PM,37.9,18.0,45,30.16,10.0,WSW,3.5,-,N/A,,Clear,240,2013-01-16 23:52:00
6:52 PM,30.0,18.0,61,30.17,10.0,Calm,Calm,-,N/A,,Clear,0,2013-01-17 00:52:00
7:52 PM,28.0,19.0,69,30.17,10.0,Calm,Calm,-,N/A,,Clear,0,2013-01-17 01:52:00
8:52 PM,27.0,19.9,75,30.18,10.0,Calm,Calm,-,N/A,,Clear,0,2013-01-17 02:52:00
9:52 PM,25.0,19.9,81,30.19,10.0,Calm,Calm,-,N/A,,Clear,0,2013-01-17 03:52:00
10:52 PM,25.0,19.0,78,30.20,10.0,Calm,Calm,-,N/A,,Clear,0,2013-01-17 04:52:00
11:52 PM,24.1,19.0,81,30.21,10.0,Calm,Calm,-,N/A,,Clear,0,2013-01-17 05:52:00